Time;durP1;ratioP1;P1;durP2;ratioP2;P2;SDS_P1;SDS_P2;PMS_P1;PMS_P2;Temp;Humidity;BMP_temperature;BMP_pressure;BME280_temperature;BME280_humidity;BME280_pressure;Samples;Min_cycle;Max_cycle;Signal;HPM_P1;HPM_P2
2022/04/30 00:01:29;;;;;;;10.05;5.05;;;;;;;25.67;16.46;98966.28;5069058;28;20079;-78
2022/04/30 00:03:56;;;;;;;10.05;5.78;;;;;;;25.41;16.67;98962.19;5068733;28;20048;-79
2022/04/30 00:06:22;;;;;;;11.98;5.13;;;;;;;25.06;17.10;98963.44;5066837;28;20039;-77
2022/04/30 00:08:48;;;;;;;8.70;5.15;;;;;;;25.26;16.91;98963.59;5068068;28;20547;-78
2022/04/30 00:11:14;;;;;;;11.05;5.30;;;;;;;25.46;16.44;98966.59;5068634;28;20477;-79
2022/04/30 00:13:40;;;;;;;12.15;5.72;;;;;;;25.41;16.80;98971.41;5050964;28;20033;-78
2022/04/30 00:16:06;;;;;;;13.23;6.57;;;;;;;25.47;16.65;98966.16;5066666;28;20032;-78
2022/04/30 00:18:32;;;;;;;11.93;6.05;;;;;;;25.80;16.40;98968.09;5067950;28;20036;-79
2022/04/30 00:20:58;;;;;;;13.48;7.05;;;;;;;26.01;16.06;98964.16;5068801;28;20028;-79
2022/04/30 00:23:26;;;;;;;14.00;7.20;;;;;;;26.18;15.83;98965.94;5064809;28;20090;-78
2022/04/30 00:25:54;;;;;;;11.18;6.05;;;;;;;26.18;15.54;98965.13;5068697;28;20047;-79
2022/04/30 00:28:22;;;;;;;11.55;5.45;;;;;;;26.21;15.54;98969.91;5067720;28;20036;-79
2022/04/30 00:30:49;;;;;;;11.48;5.63;;;;;;;26.17;15.71;98967.16;5062653;28;20071;-78
2022/04/30 00:33:16;;;;;;;10.20;5.75;;;;;;;26.12;15.86;98964.00;5067543;28;20108;-78
2022/04/30 00:35:43;;;;;;;11.73;5.43;;;;;;;26.17;15.63;98969.16;5069670;28;20063;-78
2022/04/30 00:38:09;;;;;;;11.73;6.32;;;;;;;26.14;15.65;98970.81;5068186;28;20393;-79
2022/04/30 00:40:35;;;;;;;12.65;6.20;;;;;;;25.64;16.09;98964.31;5067492;28;20430;-78
2022/04/30 00:43:02;;;;;;;12.27;5.38;;;;;;;25.59;16.11;98965.59;5065340;28;20513;-78
2022/04/30 00:45:28;;;;;;;12.02;6.43;;;;;;;25.37;16.54;98953.81;5069210;28;20039;-79
2022/04/30 00:47:55;;;;;;;14.05;6.93;;;;;;;25.58;16.18;98952.75;5068538;28;20021;-78
2022/04/30 00:50:22;;;;;;;10.77;5.47;;;;;;;25.45;15.93;98953.75;5066745;28;20153;-78
2022/04/30 00:52:51;;;;;;;10.20;5.95;;;;;;;25.46;16.02;98956.16;5067776;28;20085;-78
2022/04/30 00:55:21;;;;;;;14.35;6.30;;;;;;;25.50;15.98;98962.50;5051591;28;20443;-78
2022/04/30 00:57:54;;;;;;;10.30;6.45;;;;;;;25.46;16.05;98953.34;5068201;28;20044;-79
2022/04/30 01:00:20;;;;;;;11.35;5.97;;;;;;;25.39;16.23;98956.22;5066610;28;21446;-78
2022/04/30 01:02:46;;;;;;;11.38;6.53;;;;;;;25.29;16.74;98952.31;5066258;28;20032;-78
2022/04/30 01:05:12;;;;;;;9.70;5.97;;;;;;;25.30;16.60;98953.09;5067343;28;20111;-78
2022/04/30 01:07:40;;;;;;;11.13;6.13;;;;;;;25.11;16.72;98950.94;5068453;28;20029;-78
2022/04/30 01:10:08;;;;;;;12.25;6.25;;;;;;;25.24;16.21;98957.59;5067514;28;20089;-79
2022/04/30 01:12:35;;;;;;;8.65;5.13;;;;;;;25.46;16.12;98958.16;5066433;28;20056;-78
2022/04/30 01:15:04;;;;;;;10.93;6.05;;;;;;;25.34;16.43;98959.50;5067966;28;20052;-78
2022/04/30 01:17:31;;;;;;;8.43;5.22;;;;;;;25.25;16.29;98962.78;5068045;28;20058;-78
2022/04/30 01:19:58;;;;;;;11.93;5.00;;;;;;;24.97;16.63;98956.75;5067039;28;20036;-78
2022/04/30 01:22:36;;;;;;;10.88;5.80;;;;;;;24.75;16.74;98956.13;5065779;28;20054;-78
2022/04/30 01:25:04;;;;;;;9.40;5.57;;;;;;;24.70;16.70;98953.78;5063310;28;20024;-78
2022/04/30 01:27:31;;;;;;;15.77;7.05;;;;;;;24.76;17.09;98954.13;5068415;28;20405;-78
2022/04/30 01:30:00;;;;;;;13.13;6.10;;;;;;;24.73;16.94;98952.97;5067513;28;20036;-78
2022/04/30 01:38:07;;;;;;;11.00;6.22;;;;;;;24.82;16.68;98956.09;5067062;28;20086;-78
2022/04/30 01:40:33;;;;;;;10.20;5.78;;;;;;;25.00;16.59;98951.06;5068299;28;20044;-79
2022/04/30 01:43:01;;;;;;;8.05;5.22;;;;;;;25.04;16.03;98957.44;5048763;28;20099;-78
2022/04/30 01:45:28;;;;;;;11.00;6.40;;;;;;;24.98;16.01;98955.50;5067250;28;20409;-78
2022/04/30 01:47:56;;;;;;;13.65;6.18;;;;;;;24.88;16.49;98956.44;5066413;28;20028;-78
2022/04/30 01:50:23;;;;;;;11.25;6.28;;;;;;;24.96;16.55;98958.75;5066454;28;20155;-78
2022/04/30 01:52:50;;;;;;;11.75;6.53;;;;;;;25.19;16.69;98950.44;5065895;28;20033;-78
2022/04/30 01:55:17;;;;;;;10.50;5.57;;;;;;;25.30;16.26;98948.28;5066290;28;20060;-78
2022/04/30 01:57:43;;;;;;;11.25;5.90;;;;;;;25.34;15.96;98948.25;5068245;28;20067;-78
2022/04/30 02:00:12;;;;;;;10.32;5.78;;;;;;;25.38;15.79;98946.16;5064908;28;20021;-78
2022/04/30 02:02:41;;;;;;;12.05;6.50;;;;;;;25.40;15.81;98943.72;5064732;28;20040;-78
2022/04/30 02:05:08;;;;;;;9.85;6.10;;;;;;;25.19;16.03;98944.81;5063442;28;20064;-78
2022/04/30 02:07:40;;;;;;;11.13;5.35;;;;;;;25.05;15.88;98944.19;5066814;28;20060;-78
2022/04/30 02:10:11;;;;;;;10.40;5.47;;;;;;;24.74;16.26;98935.69;5065075;28;20025;-78
2022/04/30 02:12:38;;;;;;;7.97;5.07;;;;;;;24.53;16.56;98930.28;5067012;28;20490;-78
2022/04/30 02:15:05;;;;;;;13.30;6.35;;;;;;;24.59;16.66;98933.44;5065669;28;20020;-78
2022/04/30 02:17:35;;;;;;;9.25;5.40;;;;;;;24.92;16.46;98929.91;5067609;28;20028;-78
2022/04/30 02:22:49;;;;;;;12.57;5.50;;;;;;;24.83;16.45;98918.38;5062318;28;20566;-78
2022/04/30 02:25:16;;;;;;;12.70;5.55;;;;;;;24.67;16.29;98918.09;5047090;28;20813;-78
2022/04/30 02:27:44;;;;;;;11.07;5.65;;;;;;;24.55;16.86;98922.25;5065305;28;20040;-78
2022/04/30 02:30:14;;;;;;;11.57;5.47;;;;;;;24.20;16.90;98919.78;5065450;28;20032;-78
2022/04/30 02:32:46;;;;;;;13.30;6.33;;;;;;;24.32;16.72;98916.47;5064696;28;20032;-78
2022/04/30 02:35:14;;;;;;;12.52;6.28;;;;;;;24.70;16.54;98918.06;5064697;28;20036;-78
2022/04/30 02:37:41;;;;;;;10.93;6.03;;;;;;;24.92;16.05;98920.66;5063160;28;20024;-78
2022/04/30 02:40:08;;;;;;;13.63;6.47;;;;;;;24.87;16.40;98912.69;5063704;28;20036;-78
2022/04/30 02:42:34;;;;;;;14.93;6.68;;;;;;;24.85;16.58;98915.13;5063594;28;20559;-78
2022/04/30 02:45:00;;;;;;;11.27;6.35;;;;;;;25.01;16.78;98907.72;5065369;28;20024;-78
2022/04/30 02:47:26;;;;;;;14.90;6.18;;;;;;;25.18;16.00;98912.28;5065861;28;20086;-78
2022/04/30 02:49:53;;;;;;;12.80;6.30;;;;;;;25.10;15.85;98905.19;5065075;28;20544;-78
2022/04/30 02:52:20;;;;;;;11.93;6.57;;;;;;;25.19;15.85;98904.66;5063162;28;20029;-78
2022/04/30 02:54:46;;;;;;;10.98;5.82;;;;;;;25.22;15.84;98904.63;5063961;28;20033;-78
2022/04/30 02:57:12;;;;;;;10.07;5.28;;;;;;;25.28;15.83;98905.75;5066323;28;20039;-78
2022/04/30 02:59:54;;;;;;;9.63;5.43;;;;;;;25.28;15.77;98900.13;5067597;28;20060;-78
2022/04/30 03:02:21;;;;;;;8.50;4.88;;;;;;;25.14;15.71;98903.13;5068758;28;20037;-78
2022/04/30 03:04:51;;;;;;;10.60;4.88;;;;;;;24.52;16.30;98897.81;5067785;28;20028;-78
2022/04/30 03:07:19;;;;;;;13.20;5.70;;;;;;;24.19;16.76;98900.56;5052786;28;20463;-78
2022/04/30 03:09:48;;;;;;;12.93;5.70;;;;;;;24.24;16.66;98898.13;5071329;28;20125;-78
2022/04/30 03:12:15;;;;;;;11.05;5.80;;;;;;;24.63;16.55;98894.88;5066144;28;20053;-78
2022/04/30 03:14:42;;;;;;;8.95;5.55;;;;;;;24.77;16.68;98894.75;5070434;28;20032;-78
2022/04/30 03:22:39;;;;;;;13.02;5.43;;;;;;;25.03;15.93;98904.47;5070997;28;20044;-78
2022/04/30 03:25:06;;;;;;;11.48;5.53;;;;;;;25.05;16.18;98902.84;5069897;28;20044;-78
2022/04/30 03:27:32;;;;;;;9.15;5.32;;;;;;;24.98;16.09;98905.72;5070498;28;20389;-78
2022/04/30 03:29:58;;;;;;;9.75;5.85;;;;;;;25.03;16.19;98907.28;5052467;28;20040;-78
2022/04/30 03:32:25;;;;;;;10.88;5.47;;;;;;;25.16;16.12;98902.69;5070094;28;20040;-78
2022/04/30 03:34:52;;;;;;;10.23;5.65;;;;;;;25.26;15.76;98905.38;5069145;28;20485;-78
2022/04/30 03:37:18;;;;;;;9.27;5.38;;;;;;;25.30;15.52;98897.66;5069373;28;20037;-78
2022/04/30 03:39:44;;;;;;;9.43;5.07;;;;;;;25.37;15.33;98900.38;5069643;28;20066;-78
2022/04/30 03:42:10;;;;;;;9.93;5.80;;;;;;;25.45;15.66;98901.13;5069148;28;20127;-78
2022/04/30 03:44:36;;;;;;;9.00;4.43;;;;;;;25.52;15.76;98901.00;5070274;28;20025;-77
2022/04/30 03:47:02;;;;;;;11.10;5.70;;;;;;;25.20;16.13;98904.25;5069410;28;20374;-78
2022/04/30 03:49:28;;;;;;;8.02;5.43;;;;;;;25.15;16.35;98893.47;5068685;28;20032;-78
2022/04/30 03:51:54;;;;;;;10.13;5.53;;;;;;;25.37;16.13;98893.97;5069649;28;20488;-78
2022/04/30 03:54:21;;;;;;;11.15;5.25;;;;;;;25.70;16.00;98900.72;5068067;28;20024;-78
2022/04/30 03:56:47;;;;;;;8.25;5.10;;;;;;;26.18;15.99;98895.56;5068988;28;20029;-78
2022/04/30 03:59:13;;;;;;;16.05;5.45;;;;;;;26.55;15.40;98898.09;5069192;28;20032;-78
2022/04/30 04:01:40;;;;;;;9.68;5.55;;;;;;;26.53;16.14;98892.09;5067676;28;20086;-78
2022/04/30 04:04:07;;;;;;;9.05;5.43;;;;;;;26.95;15.88;98893.31;5069971;28;20060;-78
2022/04/30 04:06:33;;;;;;;8.70;5.30;;;;;;;27.27;15.53;98890.59;5070323;28;20032;-78
2022/04/30 04:08:59;;;;;;;8.77;5.50;;;;;;;27.39;15.67;98887.13;5070180;28;20029;-78
2022/04/30 04:11:26;;;;;;;8.15;5.28;;;;;;;27.05;16.10;98883.03;5068540;28;20110;-79
2022/04/30 04:19:24;;;;;;;12.73;6.60;;;;;;;27.81;15.99;98898.63;5070155;28;20052;-79
2022/04/30 04:21:51;;;;;;;13.77;7.30;;;;;;;27.52;16.49;98898.50;5069940;28;20048;-79
2022/04/30 04:27:01;;;;;;;12.57;6.05;;;;;;;27.61;16.78;98889.47;5065275;28;20051;-79
2022/04/30 04:29:27;;;;;;;11.43;6.22;;;;;;;27.47;17.52;98898.25;5069175;28;20028;-79
2022/04/30 04:31:53;;;;;;;9.50;6.47;;;;;;;27.38;17.14;98890.38;5071395;28;20090;-79
2022/04/30 04:34:19;;;;;;;8.30;5.95;;;;;;;27.24;17.33;98899.09;5071710;28;20094;-79
2022/04/30 04:36:45;;;;;;;9.00;5.35;;;;;;;27.20;17.74;98904.03;5072431;28;20039;-79
2022/04/30 04:39:14;;;;;;;10.68;5.57;;;;;;;27.28;17.52;98906.25;5070751;28;20040;-79
2022/04/30 04:41:43;;;;;;;10.73;5.30;;;;;;;27.26;17.59;98900.25;5071105;28;20033;-79
2022/04/30 04:44:10;;;;;;;8.68;5.85;;;;;;;27.37;17.98;98898.06;5071901;28;20029;-79
2022/04/30 04:46:38;;;;;;;9.48;5.57;;;;;;;27.36;18.11;98893.59;5071651;28;20054;-79
2022/04/30 04:49:06;;;;;;;9.65;5.63;;;;;;;27.36;17.93;98893.59;5069280;28;20060;-79
2022/04/30 04:51:36;;;;;;;8.05;4.90;;;;;;;27.56;17.80;98901.25;5067292;28;20036;-80
2022/04/30 04:54:03;;;;;;;8.68;5.45;;;;;;;27.75;17.88;98900.41;5070948;28;20035;-79
2022/04/30 04:56:30;;;;;;;7.25;5.10;;;;;;;27.88;17.68;98896.44;5070115;28;20032;-79
2022/04/30 04:58:57;;;;;;;7.85;5.55;;;;;;;27.98;18.12;98895.38;5070813;28;20067;-79
2022/04/30 05:01:23;;;;;;;7.75;4.88;;;;;;;28.04;17.77;98902.13;5068953;28;20477;-79
2022/04/30 05:03:49;;;;;;;6.28;4.75;;;;;;;28.12;17.43;98902.75;5071513;28;20519;-80
2022/04/30 05:06:15;;;;;;;9.75;5.57;;;;;;;28.19;16.96;98896.09;5067344;28;20485;-80
2022/04/30 05:08:41;;;;;;;10.73;5.60;;;;;;;28.26;17.33;98901.56;5066540;28;20074;-80
2022/04/30 05:11:08;;;;;;;10.35;6.68;;;;;;;28.23;17.09;98896.81;5068086;28;20063;-81
2022/04/30 05:13:34;;;;;;;12.18;6.03;;;;;;;28.25;17.13;98894.31;5069365;28;20048;-80
2022/04/30 05:16:01;;;;;;;10.38;6.25;;;;;;;28.01;17.04;98899.38;5066846;28;20041;-79
2022/04/30 05:18:28;;;;;;;7.00;5.15;;;;;;;27.94;17.00;98893.88;5068445;28;20065;-79
2022/04/30 05:20:54;;;;;;;7.60;4.88;;;;;;;28.07;17.72;98900.44;5067715;28;20068;-79
2022/04/30 05:23:20;;;;;;;6.78;3.58;;;;;;;28.44;17.50;98897.03;5068768;28;20102;-79
2022/04/30 05:25:46;;;;;;;6.18;3.95;;;;;;;28.81;16.98;98894.84;5070379;28;20034;-80
2022/04/30 05:28:13;;;;;;;5.70;3.60;;;;;;;29.21;17.00;98891.25;5067030;28;20035;-79
2022/04/30 05:30:39;;;;;;;5.75;3.42;;;;;;;29.59;16.82;98890.50;5066683;28;20024;-79
2022/04/30 05:33:05;;;;;;;6.50;3.97;;;;;;;29.57;16.31;98888.13;5045597;28;20489;-79
2022/04/30 05:35:31;;;;;;;6.25;3.97;;;;;;;29.37;16.46;98888.34;5067149;28;20036;-80
2022/04/30 05:37:57;;;;;;;5.70;3.97;;;;;;;29.23;16.44;98897.25;5068894;28;20037;-79
2022/04/30 05:40:23;;;;;;;6.18;4.38;;;;;;;29.10;16.38;98896.41;5065383;28;20031;-79
2022/04/30 05:42:49;;;;;;;10.73;4.03;;;;;;;29.00;16.52;98893.91;5050122;28;20112;-80
2022/04/30 05:45:15;;;;;;;7.88;4.25;;;;;;;28.93;16.53;98885.63;5065629;28;20041;-80
2022/04/30 05:47:41;;;;;;;7.50;4.13;;;;;;;29.15;16.50;98887.34;5071089;28;20457;-79
2022/04/30 05:50:09;;;;;;;6.40;3.35;;;;;;;29.32;16.47;98888.09;5067839;28;20033;-79
2022/04/30 05:52:35;;;;;;;6.00;2.97;;;;;;;29.39;16.06;98887.88;5068058;28;20029;-80
2022/04/30 05:55:02;;;;;;;5.43;4.07;;;;;;;29.08;16.40;98890.41;5068883;28;20493;-80
2022/04/30 05:57:30;;;;;;;8.18;4.13;;;;;;;28.88;16.64;98891.81;5069334;28;20060;-83
2022/04/30 05:59:56;;;;;;;6.60;3.70;;;;;;;28.85;16.94;98892.69;5067029;28;20033;-83
2022/04/30 06:02:22;;;;;;;5.20;3.40;;;;;;;28.83;16.47;98893.16;5066011;28;20060;-83
2022/04/30 06:04:49;;;;;;;6.65;4.38;;;;;;;29.05;16.63;98899.81;5068281;28;20134;-80
2022/04/30 06:07:16;;;;;;;4.95;3.22;;;;;;;29.13;16.53;98889.03;5064978;28;20028;-82
2022/04/30 06:09:42;;;;;;;4.25;2.97;;;;;;;29.60;16.37;98901.38;5065759;28;20068;-80
2022/04/30 06:12:08;;;;;;;6.60;3.40;;;;;;;29.87;15.41;98898.91;5067285;28;20064;-80
2022/04/30 06:14:35;;;;;;;5.65;2.78;;;;;;;29.84;15.51;98897.00;5066618;28;20068;-80
2022/04/30 06:17:01;;;;;;;4.20;3.13;;;;;;;29.86;15.54;98886.00;5068862;28;20024;-80
2022/04/30 06:19:27;;;;;;;5.05;2.92;;;;;;;29.59;16.35;98890.50;5067255;28;20127;-80
2022/04/30 06:21:54;;;;;;;6.47;3.40;;;;;;;29.65;15.90;98888.69;5067117;28;20078;-80
2022/04/30 06:24:20;;;;;;;4.80;2.78;;;;;;;29.82;16.14;98887.38;5067158;28;20047;-80
2022/04/30 06:26:46;;;;;;;4.63;2.35;;;;;;;30.24;15.74;98897.28;5065013;28;20029;-80
2022/04/30 06:29:13;;;;;;;4.07;2.42;;;;;;;30.62;14.99;98894.34;5069258;28;20078;-80
2022/04/30 06:31:40;;;;;;;4.53;2.83;;;;;;;30.00;15.39;98893.22;5068101;28;20036;-80
2022/04/30 06:34:06;;;;;;;5.60;3.65;;;;;;;29.72;15.20;98896.94;5067920;28;20028;-81
2022/04/30 06:36:32;;;;;;;3.67;2.70;;;;;;;29.94;15.66;98893.00;5070277;28;20502;-80
2022/04/30 06:38:58;;;;;;;5.40;2.00;;;;;;;30.61;15.82;98896.41;5070747;28;20111;-81
2022/04/30 06:41:24;;;;;;;3.10;2.15;;;;;;;31.14;14.71;98891.63;5071010;28;20543;-80
2022/04/30 06:43:51;;;;;;;3.97;2.50;;;;;;;31.11;15.13;98888.94;5051413;28;20565;-80
2022/04/30 06:46:17;;;;;;;4.45;2.60;;;;;;;31.00;14.86;98889.31;5073261;28;20035;-80
2022/04/30 06:48:46;;;;;;;3.55;2.25;;;;;;;30.86;15.25;98900.34;5053714;28;20375;-81
2022/04/30 06:51:12;;;;;;;5.22;2.60;;;;;;;30.99;15.04;98903.97;5070969;28;20032;-81
2022/04/30 06:59:11;;;;;;;5.25;2.78;;;;;;;30.98;15.05;98891.81;5068738;28;20043;-82
2022/04/30 07:01:43;;;;;;;4.00;2.22;;;;;;;31.23;14.78;98890.88;5066901;28;20032;-81
2022/04/30 07:04:10;;;;;;;4.50;2.17;;;;;;;31.17;15.61;98882.19;5069078;28;20485;-81
2022/04/30 07:06:37;;;;;;;4.03;1.95;;;;;;;31.70;15.43;98882.16;5066909;28;20032;-81
2022/04/30 07:09:05;;;;;;;3.03;1.98;;;;;;;31.91;15.24;98882.06;5049833;28;20028;-81
2022/04/30 07:11:32;;;;;;;5.63;2.33;;;;;;;32.04;14.88;98884.84;5067905;28;20055;-82
2022/04/30 07:13:58;;;;;;;4.45;2.38;;;;;;;31.76;15.08;98885.97;5067269;28;20079;-81
2022/04/30 07:16:24;;;;;;;4.28;2.40;;;;;;;31.93;15.46;98884.44;5068699;28;20056;-81
2022/04/30 07:18:50;;;;;;;4.63;2.35;;;;;;;32.41;15.01;98872.28;5068233;28;20032;-80
2022/04/30 07:21:17;;;;;;;2.65;1.83;;;;;;;32.94;14.90;98880.50;5069366;28;20036;-81
2022/04/30 07:23:43;;;;;;;2.55;1.90;;;;;;;33.43;13.93;98881.06;5067601;28;20933;-81
2022/04/30 07:26:09;;;;;;;3.88;2.22;;;;;;;32.84;13.94;98879.72;5069053;28;20405;-81
2022/04/30 07:28:36;;;;;;;5.10;2.97;;;;;;;32.05;14.83;98875.03;5048782;28;20578;-81
2022/04/30 07:31:03;;;;;;;7.78;2.42;;;;;;;31.72;15.50;98886.09;5069012;28;20389;-82
2022/04/30 07:33:30;;;;;;;4.40;1.88;;;;;;;32.19;15.89;98885.00;5050405;28;20025;-82
2022/04/30 07:35:56;;;;;;;3.35;1.50;;;;;;;32.74;14.86;98881.75;5065642;28;20154;-82
2022/04/30 07:38:23;;;;;;;5.18;2.05;;;;;;;33.17;13.71;98874.16;5050982;28;20016;-83
2022/04/30 07:40:49;;;;;;;3.10;2.40;;;;;;;33.22;14.20;98877.16;5068400;28;20036;-81
2022/04/30 07:43:15;;;;;;;1.88;1.38;;;;;;;33.34;13.67;98883.94;5068493;28;20028;-82
2022/04/30 07:45:42;;;;;;;2.42;1.77;;;;;;;32.87;13.81;98883.66;5067027;28;20119;-82
2022/04/30 07:48:08;;;;;;;3.38;1.73;;;;;;;32.85;14.81;98875.59;5068652;28;20039;-82
2022/04/30 07:50:37;;;;;;;3.58;1.40;;;;;;;33.36;14.72;98876.50;5068629;28;20040;-81
2022/04/30 07:53:08;;;;;;;3.05;1.90;;;;;;;33.60;14.53;98876.59;5073102;28;20111;-79
2022/04/30 07:55:34;;;;;;;3.10;1.52;;;;;;;33.68;14.89;98868.50;5068960;28;20170;-79
2022/04/30 07:58:02;;;;;;;2.83;1.98;;;;;;;33.44;13.33;98871.25;5071681;28;20448;-79
2022/04/30 08:00:29;;;;;;;5.07;2.00;;;;;;;32.99;13.18;98877.81;5050606;28;20036;-79
2022/04/30 08:02:56;;;;;;;2.85;1.63;;;;;;;33.06;13.53;98866.13;5068308;28;20495;-79
2022/04/30 08:05:25;;;;;;;1.48;1.17;;;;;;;33.59;14.29;98865.66;5063260;28;22395;-80
2022/04/30 08:07:52;;;;;;;3.17;1.98;;;;;;;33.79;13.34;98868.75;5069208;28;20036;-80
2022/04/30 08:10:18;;;;;;;2.47;1.65;;;;;;;34.02;13.57;98863.09;5069849;28;20032;-80
2022/04/30 08:12:44;;;;;;;1.17;1.00;;;;;;;33.54;12.63;98852.88;5068373;28;20045;-80
2022/04/30 08:15:11;;;;;;;1.73;1.30;;;;;;;33.37;13.08;98872.34;5051675;28;20048;-80
2022/04/30 08:17:40;;;;;;;2.63;1.35;;;;;;;31.33;13.00;98858.47;5063758;28;20029;-80
2022/04/30 08:20:08;;;;;;;2.83;1.70;;;;;;;29.00;15.06;98872.06;5073664;28;20107;-79
2022/04/30 08:22:35;;;;;;;2.38;1.65;;;;;;;29.04;14.53;98875.56;5071635;28;20040;-80
2022/04/30 08:25:01;;;;;;;2.85;2.08;;;;;;;29.63;14.70;98868.53;5077035;28;20039;-79
2022/04/30 08:27:27;;;;;;;2.90;2.03;;;;;;;28.28;14.75;98870.84;5069247;28;20059;-78
2022/04/30 08:29:53;;;;;;;2.95;2.05;;;;;;;28.83;15.83;98869.75;5069689;28;20036;-80
2022/04/30 08:32:26;;;;;;;2.30;1.67;;;;;;;30.43;15.29;98867.91;5068750;28;20040;-81
2022/04/30 08:34:53;;;;;;;3.85;1.92;;;;;;;31.28;14.55;98864.72;5053067;28;20509;-79
2022/04/30 08:37:19;;;;;;;2.80;2.05;;;;;;;31.10;14.09;98876.78;5036953;28;20257;-80
2022/04/30 08:39:48;;;;;;;3.85;2.22;;;;;;;29.06;14.49;98875.13;5067600;28;20029;-79
2022/04/30 08:42:15;;;;;;;2.65;1.83;;;;;;;29.44;14.28;98873.19;5066139;28;22306;-81
2022/04/30 08:44:41;;;;;;;4.57;2.08;;;;;;;28.59;16.28;98870.00;5067129;28;20044;-80
2022/04/30 08:47:11;;;;;;;4.82;2.63;;;;;;;27.81;16.43;98874.03;5067152;28;20036;-80
2022/04/30 08:49:44;;;;;;;4.07;2.47;;;;;;;27.67;16.53;98865.91;5068504;28;20102;-81
2022/04/30 08:52:12;;;;;;;4.03;2.50;;;;;;;28.63;14.68;98861.44;5068365;28;20181;-81
2022/04/30 08:54:38;;;;;;;5.45;2.70;;;;;;;28.13;15.90;98866.81;5066768;28;20096;-81
2022/04/30 08:57:05;;;;;;;3.25;2.10;;;;;;;29.21;15.01;98856.53;5068167;28;20036;-81
2022/04/30 08:59:31;;;;;;;3.20;2.20;;;;;;;29.39;15.12;98860.38;5064968;28;20032;-80
2022/04/30 09:01:58;;;;;;;2.47;1.90;;;;;;;27.73;15.57;98866.97;5065969;28;20090;-80
2022/04/30 09:04:26;;;;;;;2.85;1.60;;;;;;;27.66;15.88;98863.50;5065333;28;20039;-80
2022/04/30 09:06:55;;;;;;;2.17;1.40;;;;;;;29.94;14.06;98853.34;5064393;28;20485;-79
2022/04/30 09:09:29;;;;;;;3.20;2.38;;;;;;;28.67;13.93;98853.66;5066831;28;20409;-82
2022/04/30 09:12:06;;;;;;;3.25;1.90;;;;;;;28.74;14.61;98845.78;5066484;28;20063;-82
2022/04/30 09:14:32;;;;;;;4.25;1.67;;;;;;;29.26;15.04;98845.44;5070542;28;20032;-82
2022/04/30 09:17:06;;;;;;;3.45;1.77;;;;;;;28.95;14.10;98835.88;5066831;28;20025;-81
2022/04/30 09:19:44;;;;;;;3.42;1.83;;;;;;;29.40;14.56;98849.88;5069182;28;20090;-81
2022/04/30 09:22:10;;;;;;;2.45;1.70;;;;;;;29.08;14.06;98845.16;5069015;28;20024;-79
2022/04/30 09:24:50;;;;;;;3.38;1.80;;;;;;;29.07;13.92;98839.97;5065726;28;20032;-81
2022/04/30 09:27:17;;;;;;;3.92;1.83;;;;;;;30.16;13.78;98844.94;5068622;28;20059;-80
2022/04/30 09:29:44;;;;;;;3.65;1.70;;;;;;;29.72;13.41;98837.50;5068041;28;20614;-80
2022/04/30 09:32:21;;;;;;;2.38;1.90;;;;;;;28.21;14.36;98842.81;5068254;28;20032;-80
2022/04/30 09:37:45;;;;;;;3.00;2.05;;;;;;;28.30;14.88;98834.47;5064344;28;20079;-81
2022/04/30 09:40:14;;;;;;;2.35;1.58;;;;;;;28.61;14.83;98827.97;5064646;28;20032;-83
2022/04/30 09:42:48;;;;;;;2.70;1.60;;;;;;;30.17;13.48;98831.56;5066058;28;22614;-79
2022/04/30 09:45:32;;;;;;;3.30;2.03;;;;;;;27.62;14.17;98824.13;5063600;28;20071;-78
2022/04/30 09:48:01;;;;;;;3.35;1.90;;;;;;;28.67;14.69;98819.75;5065245;28;20035;-80
2022/04/30 09:56:07;;;;;;;2.42;1.60;;;;;;;29.26;13.67;98828.47;5069820;28;20052;-81
2022/04/30 09:58:38;;;;;;;3.08;2.38;;;;;;;27.65;14.87;98819.63;5066220;28;20048;-79
2022/04/30 10:01:05;;;;;;;2.63;2.05;;;;;;;28.50;15.03;98809.69;5063604;28;20037;-79
2022/04/30 10:03:33;;;;;;;4.10;2.70;;;;;;;27.27;16.25;98814.44;5063437;28;20032;-80
2022/04/30 10:06:06;;;;;;;4.18;2.53;;;;;;;27.77;14.83;98811.22;5067114;28;20078;-80
2022/04/30 10:08:39;;;;;;;2.03;1.83;;;;;;;28.87;14.75;98806.22;5047867;28;20127;-80
2022/04/30 10:11:32;;;;;;;3.00;1.65;;;;;;;31.42;13.71;98796.88;5044453;28;20036;-82
2022/04/30 10:14:24;;;;;;;2.22;1.48;;;;;;;30.42;12.82;98803.94;5061180;28;20091;-81
2022/04/30 10:19:35;;;;;;;2.53;1.48;;;;;;;30.54;13.22;98786.09;5064110;28;20178;-82
2022/04/30 10:22:15;;;;;;;1.95;1.42;;;;;;;31.17;12.95;98782.09;5063961;28;20048;-83
2022/04/30 10:24:56;;;;;;;2.15;1.10;;;;;;;32.39;13.05;98780.19;5064032;28;20078;-83
2022/04/30 10:27:22;;;;;;;2.58;1.65;;;;;;;33.47;11.54;98781.22;5059841;28;20036;-83
2022/04/30 10:30:18;;;;;;;2.70;1.55;;;;;;;33.40;11.95;98785.97;5062817;28;20549;-84
2022/04/30 10:32:59;;;;;;;2.30;1.40;;;;;;;31.78;12.49;98786.88;5059454;28;20032;-84
2022/04/30 10:35:33;;;;;;;1.55;1.27;;;;;;;32.97;11.46;98777.13;5057692;28;20139;-84
2022/04/30 10:38:19;;;;;;;1.98;1.25;;;;;;;33.78;10.95;98776.00;5064483;28;20029;-84
2022/04/30 10:40:49;;;;;;;2.95;1.00;;;;;;;33.50;11.31;98769.66;5063721;28;20044;-84
2022/04/30 10:43:17;;;;;;;2.13;1.33;;;;;;;32.96;11.20;98767.78;5059134;28;20405;-84
2022/04/30 10:45:43;;;;;;;1.55;1.17;;;;;;;33.58;11.65;98767.28;5046262;28;20056;-85
2022/04/30 10:48:10;;;;;;;5.18;1.30;;;;;;;33.53;12.28;98765.09;5058380;28;20036;-85
2022/04/30 10:50:36;;;;;;;1.77;1.00;;;;;;;34.48;11.23;98760.91;5061361;28;20469;-83
2022/04/30 10:53:06;;;;;;;1.58;1.10;;;;;;;33.64;12.11;98760.44;5066389;28;20041;-84
2022/04/30 10:55:32;;;;;;;1.65;1.02;;;;;;;30.53;12.17;98764.66;5067953;28;20580;-82
2022/04/30 10:57:59;;;;;;;2.67;1.60;;;;;;;29.46;13.85;98756.69;5066660;28;20016;-83
2022/04/30 11:00:26;;;;;;;1.90;1.52;;;;;;;28.75;14.61;98754.06;5065984;28;20570;-83
2022/04/30 11:02:52;;;;;;;2.03;1.83;;;;;;;29.45;13.99;98752.31;5064780;28;20033;-83
2022/04/30 11:05:22;;;;;;;1.95;1.45;;;;;;;30.12;13.42;98759.28;5067646;28;20036;-83
2022/04/30 11:07:50;;;;;;;2.40;1.42;;;;;;;30.70;12.81;98754.72;5066646;28;20421;-83
2022/04/30 11:10:17;;;;;;;2.05;1.85;;;;;;;28.41;14.70;98751.03;5071114;28;20036;-83
2022/04/30 11:12:45;;;;;;;3.20;1.80;;;;;;;28.33;14.78;98748.88;5033014;28;20052;-82
2022/04/30 11:15:15;;;;;;;1.95;1.40;;;;;;;30.44;13.29;98743.97;5027560;28;20040;-84
2022/04/30 11:17:48;;;;;;;2.35;1.67;;;;;;;32.16;12.36;98747.50;5028762;28;20047;-83
2022/04/30 11:20:22;;;;;;;2.85;1.73;;;;;;;31.78;12.01;98745.09;5027757;28;20045;-83
2022/04/30 11:23:00;;;;;;;1.98;1.77;;;;;;;29.15;13.78;98748.78;5031444;28;20482;-83
2022/04/30 11:25:36;;;;;;;2.92;1.75;;;;;;;29.27;14.25;98745.19;5031408;28;20505;-83
2022/04/30 11:28:06;;;;;;;2.15;1.40;;;;;;;30.22;14.14;98746.78;5033868;28;20182;-80
2022/04/30 11:30:36;;;;;;;1.87;1.67;;;;;;;28.92;14.17;98743.44;5029080;28;20139;-80
2022/04/30 11:33:02;;;;;;;2.83;2.28;;;;;;;27.69;15.38;98741.31;5030868;28;20486;-82
2022/04/30 11:35:28;;;;;;;4.50;2.10;;;;;;;28.29;14.93;98728.38;5027925;28;20036;-82
2022/04/30 11:37:54;;;;;;;1.83;1.55;;;;;;;27.94;15.83;98741.44;5026032;28;20407;-84
2022/04/30 11:40:22;;;;;;;2.95;1.52;;;;;;;30.03;14.33;98731.69;5026182;28;20150;-84
2022/04/30 11:42:58;;;;;;;1.88;1.40;;;;;;;30.20;12.97;98740.75;5028881;28;20124;-83
2022/04/30 11:45:31;;;;;;;2.38;1.50;;;;;;;30.61;13.91;98731.97;5023207;28;20022;-84
2022/04/30 11:47:58;;;;;;;1.60;1.20;;;;;;;31.84;12.99;98720.47;5039816;28;20037;-84
2022/04/30 11:50:26;;;;;;;1.63;1.30;;;;;;;32.63;12.68;98719.34;5027674;28;20029;-84
2022/04/30 11:52:53;;;;;;;1.30;1.10;;;;;;;33.16;12.45;98714.00;5028585;28;20098;-84
2022/04/30 11:55:22;;;;;;;1.33;0.82;;;;;;;33.46;12.48;98714.94;5028337;28;20029;-84
2022/04/30 11:57:49;;;;;;;1.92;1.00;;;;;;;32.46;11.99;98715.28;5030136;28;20029;-84
2022/04/30 12:00:18;;;;;;;1.95;1.20;;;;;;;32.65;11.89;98701.84;5026309;28;20376;-83
2022/04/30 12:02:49;;;;;;;1.95;1.45;;;;;;;30.34;13.77;98709.09;5029305;28;20116;-84
2022/04/30 12:05:16;;;;;;;2.50;1.40;;;;;;;31.02;13.53;98696.75;5020588;28;20030;-83
2022/04/30 12:07:44;;;;;;;1.05;0.90;;;;;;;32.04;12.28;98698.09;5023607;28;20605;-84
2022/04/30 12:10:29;;;;;;;2.65;1.40;;;;;;;31.44;11.63;98697.06;5025345;28;20060;-81
2022/04/30 12:12:55;;;;;;;1.23;1.08;;;;;;;32.75;11.52;98697.69;5056717;28;20126;-81
2022/04/30 12:15:23;;;;;;;0.80;0.80;;;;;;;33.22;11.51;98697.03;5048185;28;20504;-80